sensor_id;sensor_type;location;lat;lon;timestamp;pressure;altitude;pressure_sealevel;temperature;humidity
77321;BME280;66382;52.252;8.780;2023-07-20T00:02:20;100319.41;;;17.45;60.67
77321;BME280;66382;52.252;8.780;2023-07-20T00:04:45;100320.13;;;17.40;61.86
77321;BME280;66382;52.252;8.780;2023-07-20T00:07:11;100316.84;;;17.38;61.65
77321;BME280;66382;52.252;8.780;2023-07-20T00:09:37;100307.78;;;17.32;62.16
77321;BME280;66382;52.252;8.780;2023-07-20T00:12:03;100309.06;;;17.30;62.56
77321;BME280;66382;52.252;8.780;2023-07-20T00:14:29;100316.13;;;17.31;61.98
77321;BME280;66382;52.252;8.780;2023-07-20T00:16:56;100317.44;;;17.28;60.98
77321;BME280;66382;52.252;8.780;2023-07-20T00:19:22;100312.75;;;17.24;62.99
77321;BME280;66382;52.252;8.780;2023-07-20T00:21:48;100313.56;;;17.24;62.73
77321;BME280;66382;52.252;8.780;2023-07-20T00:24:13;100304.97;;;17.27;63.13
77321;BME280;66382;52.252;8.780;2023-07-20T00:26:39;100309.91;;;17.30;62.79
77321;BME280;66382;52.252;8.780;2023-07-20T00:29:05;100300.94;;;17.30;63.07
77321;BME280;66382;52.252;8.780;2023-07-20T00:31:30;100304.25;;;17.32;62.23
77321;BME280;66382;52.252;8.780;2023-07-20T00:33:57;100308.97;;;17.36;62.58
77321;BME280;66382;52.252;8.780;2023-07-20T00:36:23;100310.38;;;17.39;62.99
77321;BME280;66382;52.252;8.780;2023-07-20T00:38:49;100307.66;;;17.39;62.82
77321;BME280;66382;52.252;8.780;2023-07-20T00:41:14;100311.41;;;17.38;63.24
77321;BME280;66382;52.252;8.780;2023-07-20T00:43:40;100301.53;;;17.32;62.19
77321;BME280;66382;52.252;8.780;2023-07-20T00:46:07;100302.72;;;17.36;62.62
77321;BME280;66382;52.252;8.780;2023-07-20T00:48:33;100294.47;;;17.31;62.20
77321;BME280;66382;52.252;8.780;2023-07-20T00:51:01;100291.28;;;17.34;62.33
77321;BME280;66382;52.252;8.780;2023-07-20T00:53:27;100299.06;;;17.30;62.84
77321;BME280;66382;52.252;8.780;2023-07-20T00:55:53;100300.72;;;17.31;63.33
77321;BME280;66382;52.252;8.780;2023-07-20T00:58:20;100296.94;;;17.32;63.08
77321;BME280;66382;52.252;8.780;2023-07-20T01:00:45;100300.47;;;17.33;62.71
77321;BME280;66382;52.252;8.780;2023-07-20T01:03:11;100294.00;;;17.34;62.88
77321;BME280;66382;52.252;8.780;2023-07-20T01:05:48;100297.53;;;17.34;62.18
77321;BME280;66382;52.252;8.780;2023-07-20T01:08:25;100297.31;;;17.36;61.88
77321;BME280;66382;52.252;8.780;2023-07-20T01:10:57;100298.94;;;17.37;62.31
77321;BME280;66382;52.252;8.780;2023-07-20T01:13:25;100294.34;;;17.37;63.51
77321;BME280;66382;52.252;8.780;2023-07-20T01:15:56;100300.13;;;17.41;63.19
77321;BME280;66382;52.252;8.780;2023-07-20T01:18:22;100294.22;;;17.44;63.41
77321;BME280;66382;52.252;8.780;2023-07-20T01:20:47;100294.22;;;17.44;63.70
77321;BME280;66382;52.252;8.780;2023-07-20T01:23:38;100297.16;;;17.42;61.62
77321;BME280;66382;52.252;8.780;2023-07-20T01:26:26;100292.00;;;17.41;62.38
77321;BME280;66382;52.252;8.780;2023-07-20T01:29:11;100286.09;;;17.32;61.90
77321;BME280;66382;52.252;8.780;2023-07-20T01:31:39;100298.94;;;17.37;63.29
77321;BME280;66382;52.252;8.780;2023-07-20T01:34:08;100282.56;;;17.32;62.72
77321;BME280;66382;52.252;8.780;2023-07-20T01:36:36;100283.97;;;17.34;63.39
77321;BME280;66382;52.252;8.780;2023-07-20T01:39:03;100288.09;;;17.37;63.61
77321;BME280;66382;52.252;8.780;2023-07-20T01:41:30;100295.41;;;17.36;62.84
77321;BME280;66382;52.252;8.780;2023-07-20T01:43:57;100289.41;;;17.34;62.79
77321;BME280;66382;52.252;8.780;2023-07-20T01:46:23;100292.34;;;17.33;62.97
77321;BME280;66382;52.252;8.780;2023-07-20T01:48:50;100282.56;;;17.32;62.52
77321;BME280;66382;52.252;8.780;2023-07-20T01:51:16;100282.22;;;17.28;63.21
77321;BME280;66382;52.252;8.780;2023-07-20T01:53:42;100288.69;;;17.27;62.95
77321;BME280;66382;52.252;8.780;2023-07-20T01:56:07;100294.59;;;17.24;63.40
77321;BME280;66382;52.252;8.780;2023-07-20T01:58:33;100286.69;;;17.23;63.71
77321;BME280;66382;52.252;8.780;2023-07-20T02:00:59;100282.09;;;17.23;63.00
77321;BME280;66382;52.252;8.780;2023-07-20T02:03:24;100287.19;;;17.19;62.61
77321;BME280;66382;52.252;8.780;2023-07-20T02:05:52;100271.41;;;17.16;62.67
77321;BME280;66382;52.252;8.780;2023-07-20T02:08:17;100282.25;;;17.16;63.51
77321;BME280;66382;52.252;8.780;2023-07-20T02:10:45;100276.81;;;17.16;63.23
77321;BME280;66382;52.252;8.780;2023-07-20T02:13:11;100279.28;;;17.18;63.20
77321;BME280;66382;52.252;8.780;2023-07-20T02:15:36;100276.81;;;17.16;62.85
77321;BME280;66382;52.252;8.780;2023-07-20T02:18:02;100277.88;;;17.15;63.46
77321;BME280;66382;52.252;8.780;2023-07-20T02:20:28;100279.28;;;17.18;63.73
77321;BME280;66382;52.252;8.780;2023-07-20T02:22:55;100278.25;;;17.19;63.84
77321;BME280;66382;52.252;8.780;2023-07-20T02:25:21;100283.41;;;17.20;63.76
77321;BME280;66382;52.252;8.780;2023-07-20T02:27:47;100280.69;;;17.20;64.13
77321;BME280;66382;52.252;8.780;2023-07-20T02:30:12;100287.06;;;17.26;64.20
77321;BME280;66382;52.252;8.780;2023-07-20T02:32:38;100286.59;;;17.29;64.48
77321;BME280;66382;52.252;8.780;2023-07-20T02:35:05;100301.53;;;17.32;64.46
77321;BME280;66382;52.252;8.780;2023-07-20T02:37:30;100303.44;;;17.31;63.67
77321;BME280;66382;52.252;8.780;2023-07-20T02:39:58;100307.78;;;17.32;63.96
77321;BME280;66382;52.252;8.780;2023-07-20T02:42:23;100304.25;;;17.32;64.67
77321;BME280;66382;52.252;8.780;2023-07-20T02:44:49;100303.19;;;17.33;64.41
77321;BME280;66382;52.252;8.780;2023-07-20T02:47:15;100307.19;;;17.30;64.08
77321;BME280;66382;52.252;8.780;2023-07-20T02:49:40;100305.78;;;17.28;64.42
77321;BME280;66382;52.252;8.780;2023-07-20T02:52:06;100311.34;;;17.21;63.88
77321;BME280;66382;52.252;8.780;2023-07-20T02:54:32;100322.41;;;17.19;63.71
77321;BME280;66382;52.252;8.780;2023-07-20T02:56:59;100317.09;;;17.13;64.37
77321;BME280;66382;52.252;8.780;2023-07-20T02:59:25;100308.63;;;17.09;64.48
77321;BME280;66382;52.252;8.780;2023-07-20T03:01:50;100306.75;;;17.10;64.35
77321;BME280;66382;52.252;8.780;2023-07-20T03:04:16;100314.53;;;17.06;64.02
77321;BME280;66382;52.252;8.780;2023-07-20T03:06:42;100315.56;;;17.05;64.05
77321;BME280;66382;52.252;8.780;2023-07-20T03:09:07;100302.41;;;16.97;64.46
77321;BME280;66382;52.252;8.780;2023-07-20T03:11:33;100317.47;;;17.05;64.57
77321;BME280;66382;52.252;8.780;2023-07-20T03:14:00;100323.69;;;17.05;64.11
77321;BME280;66382;52.252;8.780;2023-07-20T03:16:26;100328.06;;;17.06;64.48
77321;BME280;66382;52.252;8.780;2023-07-20T03:18:52;100324.78;;;17.04;64.80
77321;BME280;66382;52.252;8.780;2023-07-20T03:21:17;100320.41;;;17.03;64.66
77321;BME280;66382;52.252;8.780;2023-07-20T03:23:43;100316.75;;;16.97;64.10
77321;BME280;66382;52.252;8.780;2023-07-20T03:26:09;100325.69;;;16.98;65.26
77321;BME280;66382;52.252;8.780;2023-07-20T03:28:35;100321.34;;;16.97;64.91
77321;BME280;66382;52.252;8.780;2023-07-20T03:31:02;100321.22;;;16.92;64.09
77321;BME280;66382;52.252;8.780;2023-07-20T03:33:29;100325.22;;;16.89;64.60
77321;BME280;66382;52.252;8.780;2023-07-20T03:35:55;100315.69;;;16.87;64.11
77321;BME280;66382;52.252;8.780;2023-07-20T03:38:21;100312.88;;;16.82;64.20
77321;BME280;66382;52.252;8.780;2023-07-20T03:40:50;100323.53;;;16.76;64.08
77321;BME280;66382;52.252;8.780;2023-07-20T03:43:16;100329.41;;;16.73;64.37
77321;BME280;66382;52.252;8.780;2023-07-20T03:45:42;100333.41;;;16.71;65.28
77321;BME280;66382;52.252;8.780;2023-07-20T03:48:09;100331.78;;;16.70;64.35
77321;BME280;66382;52.252;8.780;2023-07-20T03:50:35;100335.50;;;16.69;64.95
77321;BME280;66382;52.252;8.780;2023-07-20T03:53:01;100327.66;;;16.67;64.65
77321;BME280;66382;52.252;8.780;2023-07-20T03:55:26;100322.94;;;16.63;64.58
77321;BME280;66382;52.252;8.780;2023-07-20T03:57:52;100327.06;;;16.65;64.56
77321;BME280;66382;52.252;8.780;2023-07-20T04:00:18;100325.63;;;16.63;64.77
77321;BME280;66382;52.252;8.780;2023-07-20T04:02:44;100324.00;;;16.62;64.10
77321;BME280;66382;52.252;8.780;2023-07-20T04:05:11;100326.09;;;16.60;64.64
77321;BME280;66382;52.252;8.780;2023-07-20T04:07:37;100333.63;;;16.58;65.67
77321;BME280;66382;52.252;8.780;2023-07-20T04:10:03;100343.38;;;16.59;65.10
77321;BME280;66382;52.252;8.780;2023-07-20T04:12:28;100336.09;;;16.59;64.67
77321;BME280;66382;52.252;8.780;2023-07-20T04:14:54;100339.84;;;16.58;65.19
77321;BME280;66382;52.252;8.780;2023-07-20T04:17:20;100338.78;;;16.59;65.27
77321;BME280;66382;52.252;8.780;2023-07-20T04:19:45;100343.38;;;16.59;64.87
77321;BME280;66382;52.252;8.780;2023-07-20T04:22:13;100344.44;;;16.58;64.68
77321;BME280;66382;52.252;8.780;2023-07-20T04:24:39;100344.44;;;16.58;65.15
77321;BME280;66382;52.252;8.780;2023-07-20T04:27:05;100340.94;;;16.57;65.26
77321;BME280;66382;52.252;8.780;2023-07-20T04:29:30;100332.09;;;16.50;65.92
77321;BME280;66382;52.252;8.780;2023-07-20T04:31:56;100341.97;;;16.56;65.09
77321;BME280;66382;52.252;8.780;2023-07-20T04:34:22;100351.16;;;16.55;65.56
77321;BME280;66382;52.252;8.780;2023-07-20T04:36:47;100351.16;;;16.55;65.25
77321;BME280;66382;52.252;8.780;2023-07-20T04:39:14;100350.34;;;16.54;65.14
77321;BME280;66382;52.252;8.780;2023-07-20T04:41:40;100352.19;;;16.54;65.32
77321;BME280;66382;52.252;8.780;2023-07-20T04:44:06;100353.03;;;16.54;65.29
77321;BME280;66382;52.252;8.780;2023-07-20T04:46:31;100345.97;;;16.53;65.56
77321;BME280;66382;52.252;8.780;2023-07-20T04:48:57;100353.03;;;16.54;66.16
77321;BME280;66382;52.252;8.780;2023-07-20T04:51:23;100352.19;;;16.54;65.85
77321;BME280;66382;52.252;8.780;2023-07-20T04:53:48;100359.88;;;16.57;65.38
77321;BME280;66382;52.252;8.780;2023-07-20T04:56:16;100360.44;;;16.59;65.54
77321;BME280;66382;52.252;8.780;2023-07-20T04:58:41;100351.38;;;16.53;65.62
77321;BME280;66382;52.252;8.780;2023-07-20T05:01:08;100357.72;;;16.59;66.29
77321;BME280;66382;52.252;8.780;2023-07-20T05:03:33;100360.81;;;16.63;65.62
77321;BME280;66382;52.252;8.780;2023-07-20T05:05:59;100349.41;;;16.61;65.31
77321;BME280;66382;52.252;8.780;2023-07-20T05:08:25;100349.63;;;16.59;65.39
77321;BME280;66382;52.252;8.780;2023-07-20T05:10:50;100355.88;;;16.60;65.55
77321;BME280;66382;52.252;8.780;2023-07-20T05:13:18;100354.81;;;16.61;65.67
77321;BME280;66382;52.252;8.780;2023-07-20T05:15:43;100354.59;;;16.62;66.51
77321;BME280;66382;52.252;8.780;2023-07-20T05:18:09;100353.03;;;16.66;65.75
77321;BME280;66382;52.252;8.780;2023-07-20T05:20:35;100359.06;;;16.68;65.27
77321;BME280;66382;52.252;8.780;2023-07-20T05:23:00;100356.94;;;16.70;65.34
77321;BME280;66382;52.252;8.780;2023-07-20T05:25:26;100371.69;;;16.74;65.61
77321;BME280;66382;52.252;8.780;2023-07-20T05:27:52;100369.56;;;16.76;65.96
77321;BME280;66382;52.252;8.780;2023-07-20T05:30:19;100372.06;;;16.78;65.42
77321;BME280;66382;52.252;8.780;2023-07-20T05:32:45;100374.28;;;16.81;65.49
77321;BME280;66382;52.252;8.780;2023-07-20T05:35:11;100375.72;;;16.84;65.31
77321;BME280;66382;52.252;8.780;2023-07-20T05:37:36;100379.84;;;16.86;65.34
77321;BME280;66382;52.252;8.780;2023-07-20T05:40:03;100381.25;;;16.89;66.00
77321;BME280;66382;52.252;8.780;2023-07-20T05:42:29;100384.09;;;16.94;65.70
77321;BME280;66382;52.252;8.780;2023-07-20T05:44:54;100389.06;;;16.97;65.42
77321;BME280;66382;52.252;8.780;2023-07-20T05:47:22;100384.22;;;16.99;65.61
77321;BME280;66382;52.252;8.780;2023-07-20T05:49:47;100381.28;;;17.01;66.07
77321;BME280;66382;52.252;8.780;2023-07-20T05:52:13;100391.41;;;17.05;66.65
77321;BME280;66382;52.252;8.780;2023-07-20T05:54:39;100383.19;;;17.12;65.52
77321;BME280;66382;52.252;8.780;2023-07-20T05:57:05;100381.63;;;17.16;66.01
77321;BME280;66382;52.252;8.780;2023-07-20T05:59:31;100383.88;;;17.19;65.74
77321;BME280;66382;52.252;8.780;2023-07-20T06:01:56;100383.06;;;17.18;66.42
77321;BME280;66382;52.252;8.780;2023-07-20T06:04:23;100385.19;;;17.16;65.90
77321;BME280;66382;52.252;8.780;2023-07-20T06:06:49;100386.47;;;17.14;65.31
77321;BME280;66382;52.252;8.780;2023-07-20T06:09:15;100392.72;;;17.14;66.86
77321;BME280;66382;52.252;8.780;2023-07-20T06:11:40;100396.03;;;17.16;65.43
77321;BME280;66382;52.252;8.780;2023-07-20T06:14:06;100397.06;;;17.15;65.56
77321;BME280;66382;52.252;8.780;2023-07-20T06:16:32;100405.78;;;17.17;66.62
77321;BME280;66382;52.252;8.780;2023-07-20T06:18:59;100399.31;;;17.18;64.96
77321;BME280;66382;52.252;8.780;2023-07-20T06:21:27;100404.03;;;17.11;65.66
77321;BME280;66382;52.252;8.780;2023-07-20T06:23:52;100399.56;;;17.17;65.71
77321;BME280;66382;52.252;8.780;2023-07-20T06:26:18;100407.69;;;17.17;65.71
77321;BME280;66382;52.252;8.780;2023-07-20T06:28:44;100413.44;;;17.20;66.45
77321;BME280;66382;52.252;8.780;2023-07-20T06:31:09;100414.97;;;17.28;67.11
77321;BME280;66382;52.252;8.780;2023-07-20T06:33:35;100408.97;;;17.38;66.38
77321;BME280;66382;52.252;8.780;2023-07-20T06:36:01;100404.41;;;17.38;65.71
77321;BME280;66382;52.252;8.780;2023-07-20T06:38:28;100414.28;;;17.45;65.90
77321;BME280;66382;52.252;8.780;2023-07-20T06:40:53;100413.81;;;17.48;66.13
77321;BME280;66382;52.252;8.780;2023-07-20T06:43:19;100418.88;;;17.56;65.93
77321;BME280;66382;52.252;8.780;2023-07-20T06:45:51;100419.81;;;17.61;65.05
77321;BME280;66382;52.252;8.780;2023-07-20T06:48:16;100424.63;;;17.71;66.12
77321;BME280;66382;52.252;8.780;2023-07-20T06:50:43;100423.25;;;17.80;65.92
77321;BME280;66382;52.252;8.780;2023-07-20T06:53:08;100422.28;;;17.87;65.47
77321;BME280;66382;52.252;8.780;2023-07-20T06:55:35;100426.19;;;17.91;66.00
77321;BME280;66382;52.252;8.780;2023-07-20T06:58:01;100418.50;;;17.88;65.09
77321;BME280;66382;52.252;8.780;2023-07-20T07:00:27;100424.50;;;17.90;65.66
77321;BME280;66382;52.252;8.780;2023-07-20T07:02:52;100420.66;;;17.86;66.03
77321;BME280;66382;52.252;8.780;2023-07-20T07:05:18;100429.34;;;17.88;64.75
77321;BME280;66382;52.252;8.780;2023-07-20T07:07:44;100440.44;;;17.86;64.82
77321;BME280;66382;52.252;8.780;2023-07-20T07:10:10;100426.88;;;17.74;65.68
77321;BME280;66382;52.252;8.780;2023-07-20T07:12:37;100446.47;;;17.88;65.46
77321;BME280;66382;52.252;8.780;2023-07-20T07:15:04;100447.16;;;17.95;65.25
77321;BME280;66382;52.252;8.780;2023-07-20T07:17:30;100448.44;;;18.04;66.19
77321;BME280;66382;52.252;8.780;2023-07-20T07:19:56;100447.97;;;18.08;65.00
77321;BME280;66382;52.252;8.780;2023-07-20T07:22:22;100451.84;;;18.12;64.55
77321;BME280;66382;52.252;8.780;2023-07-20T07:24:47;100449.47;;;18.15;66.16
77321;BME280;66382;52.252;8.780;2023-07-20T07:27:13;100448.41;;;18.16;65.33
77321;BME280;66382;52.252;8.780;2023-07-20T07:29:40;100447.59;;;18.16;65.15
77321;BME280;66382;52.252;8.780;2023-07-20T07:32:07;100450.78;;;18.13;65.32
77321;BME280;66382;52.252;8.780;2023-07-20T07:34:32;100440.66;;;18.08;64.68
77321;BME280;66382;52.252;8.780;2023-07-20T07:36:58;100457.50;;;18.10;64.24
77321;BME280;66382;52.252;8.780;2023-07-20T07:39:24;100452.81;;;18.05;64.50
77321;BME280;66382;52.252;8.780;2023-07-20T07:41:49;100457.16;;;18.07;65.57
77321;BME280;66382;52.252;8.780;2023-07-20T07:44:15;100457.38;;;18.05;64.65
77321;BME280;66382;52.252;8.780;2023-07-20T07:46:42;100459.28;;;18.04;64.83
77321;BME280;66382;52.252;8.780;2023-07-20T07:49:08;100452.53;;;18.07;64.28
77321;BME280;66382;52.252;8.780;2023-07-20T07:51:34;100457.25;;;18.12;64.84
77321;BME280;66382;52.252;8.780;2023-07-20T07:53:59;100463.28;;;18.14;65.09
77321;BME280;66382;52.252;8.780;2023-07-20T07:56:25;100461.16;;;18.16;64.61
77321;BME280;66382;52.252;8.780;2023-07-20T07:58:51;100456.88;;;18.20;65.34
77321;BME280;66382;52.252;8.780;2023-07-20T08:01:17;100464.75;;;18.33;64.28
77321;BME280;66382;52.252;8.780;2023-07-20T08:03:44;100465.78;;;18.44;64.14
77321;BME280;66382;52.252;8.780;2023-07-20T08:06:09;100467.38;;;18.57;66.25
77321;BME280;66382;52.252;8.780;2023-07-20T08:08:35;100474.69;;;18.97;65.83
77321;BME280;66382;52.252;8.780;2023-07-20T08:11:01;100470.00;;;19.43;66.26
77321;BME280;66382;52.252;8.780;2023-07-20T08:13:26;100472.88;;;20.31;66.95
77321;BME280;66382;52.252;8.780;2023-07-20T08:15:52;100463.19;;;21.21;68.28
77321;BME280;66382;52.252;8.780;2023-07-20T08:18:18;100466.22;;;22.05;65.76
77321;BME280;66382;52.252;8.780;2023-07-20T08:20:46;100473.50;;;22.42;65.89
77321;BME280;66382;52.252;8.780;2023-07-20T08:23:12;100475.09;;;22.27;62.52
77321;BME280;66382;52.252;8.780;2023-07-20T08:25:37;100481.44;;;21.90;61.87
77321;BME280;66382;52.252;8.780;2023-07-20T08:28:03;100479.41;;;21.71;61.87
77321;BME280;66382;52.252;8.780;2023-07-20T08:30:39;100484.94;;;22.23;64.01
77321;BME280;66382;52.252;8.780;2023-07-20T08:33:05;100476.94;;;22.95;62.26
77321;BME280;66382;52.252;8.780;2023-07-20T08:35:31;100468.44;;;23.68;63.45
77321;BME280;66382;52.252;8.780;2023-07-20T08:37:58;100467.69;;;24.48;64.88
77321;BME280;66382;52.252;8.780;2023-07-20T08:40:23;100468.50;;;25.33;64.55
77321;BME280;66382;52.252;8.780;2023-07-20T08:42:50;100470.94;;;25.92;62.69
77321;BME280;66382;52.252;8.780;2023-07-20T08:45:17;100478.41;;;25.58;58.65
77321;BME280;66382;52.252;8.780;2023-07-20T08:47:45;100479.19;;;24.89;56.81
77321;BME280;66382;52.252;8.780;2023-07-20T08:50:13;100475.19;;;24.17;56.86
77321;BME280;66382;52.252;8.780;2023-07-20T08:52:40;100476.25;;;24.26;57.83
77321;BME280;66382;52.252;8.780;2023-07-20T08:55:08;100484.19;;;24.82;61.20
77321;BME280;66382;52.252;8.780;2023-07-20T08:57:36;100466.09;;;25.55;61.09
77321;BME280;66382;52.252;8.780;2023-07-20T09:00:03;100483.84;;;26.16;57.22
77321;BME280;66382;52.252;8.780;2023-07-20T09:02:29;100489.03;;;25.93;56.77
77321;BME280;66382;52.252;8.780;2023-07-20T09:04:56;100489.91;;;25.30;54.60
77321;BME280;66382;52.252;8.780;2023-07-20T09:07:22;100486.81;;;24.58;54.38
77321;BME280;66382;52.252;8.780;2023-07-20T09:09:49;100486.03;;;24.48;56.50
77321;BME280;66382;52.252;8.780;2023-07-20T09:12:16;100483.72;;;25.09;59.76
77321;BME280;66382;52.252;8.780;2023-07-20T09:14:43;100486.88;;;25.90;60.69
77321;BME280;66382;52.252;8.780;2023-07-20T09:17:12;100484.03;;;26.68;59.53
77321;BME280;66382;52.252;8.780;2023-07-20T09:19:38;100483.91;;;27.30;57.03
77321;BME280;66382;52.252;8.780;2023-07-20T09:22:05;100481.31;;;27.85;56.45
77321;BME280;66382;52.252;8.780;2023-07-20T09:24:31;100476.09;;;28.25;55.22
77321;BME280;66382;52.252;8.780;2023-07-20T09:27:01;100477.75;;;27.84;54.91
77321;BME280;66382;52.252;8.780;2023-07-20T09:29:28;100478.09;;;27.64;53.86
77321;BME280;66382;52.252;8.780;2023-07-20T09:32:00;100477.03;;;27.93;56.35
77321;BME280;66382;52.252;8.780;2023-07-20T09:34:26;100476.41;;;28.37;56.79
77321;BME280;66382;52.252;8.780;2023-07-20T09:36:53;100474.28;;;28.70;53.08
77321;BME280;66382;52.252;8.780;2023-07-20T09:39:20;100475.16;;;28.93;52.36
77321;BME280;66382;52.252;8.780;2023-07-20T09:41:45;100478.69;;;29.08;51.57
77321;BME280;66382;52.252;8.780;2023-07-20T09:44:12;100479.88;;;28.57;49.92
77321;BME280;66382;52.252;8.780;2023-07-20T09:46:44;100480.75;;;27.69;51.75
77321;BME280;66382;52.252;8.780;2023-07-20T09:49:10;100486.75;;;27.57;53.19
77321;BME280;66382;52.252;8.780;2023-07-20T09:51:36;100475.03;;;27.65;52.04
77321;BME280;66382;52.252;8.780;2023-07-20T09:54:03;100484.81;;;28.04;52.24
77321;BME280;66382;52.252;8.780;2023-07-20T09:56:30;100479.97;;;28.38;52.16
77321;BME280;66382;52.252;8.780;2023-07-20T09:58:56;100478.38;;;28.73;50.57
77321;BME280;66382;52.252;8.780;2023-07-20T10:01:22;100480.69;;;28.93;51.96
77321;BME280;66382;52.252;8.780;2023-07-20T10:03:51;100474.25;;;29.21;51.72
77321;BME280;66382;52.252;8.780;2023-07-20T10:06:23;100465.63;;;29.22;49.55
77321;BME280;66382;52.252;8.780;2023-07-20T10:08:52;100472.31;;;28.48;48.83
77321;BME280;66382;52.252;8.780;2023-07-20T10:11:21;100478.94;;;27.78;49.80
77321;BME280;66382;52.252;8.780;2023-07-20T10:13:51;100471.28;;;27.75;50.99
77321;BME280;66382;52.252;8.780;2023-07-20T10:16:22;100466.22;;;28.10;51.13
77321;BME280;66382;52.252;8.780;2023-07-20T10:18:57;100458.47;;;28.12;51.43
77321;BME280;66382;52.252;8.780;2023-07-20T10:21:25;100471.91;;;27.72;49.14
77321;BME280;66382;52.252;8.780;2023-07-20T10:23:51;100462.59;;;27.68;49.21
77321;BME280;66382;52.252;8.780;2023-07-20T10:26:17;100469.19;;;27.53;48.29
77321;BME280;66382;52.252;8.780;2023-07-20T10:28:43;100468.69;;;26.99;48.40
77321;BME280;66382;52.252;8.780;2023-07-20T10:31:10;100467.59;;;26.63;47.50
77321;BME280;66382;52.252;8.780;2023-07-20T10:33:37;100455.81;;;26.38;48.22
77321;BME280;66382;52.252;8.780;2023-07-20T10:36:05;100461.75;;;26.02;48.67
77321;BME280;66382;52.252;8.780;2023-07-20T10:38:38;100451.50;;;25.60;49.62
77321;BME280;66382;52.252;8.780;2023-07-20T10:41:15;100451.34;;;25.46;49.47
77321;BME280;66382;52.252;8.780;2023-07-20T10:43:42;100449.72;;;25.45;47.71
77321;BME280;66382;52.252;8.780;2023-07-20T10:46:10;100453.88;;;25.42;48.99
77321;BME280;66382;52.252;8.780;2023-07-20T10:48:59;100453.22;;;25.21;49.70
77321;BME280;66382;52.252;8.780;2023-07-20T10:51:26;100450.44;;;24.87;49.34
77321;BME280;66382;52.252;8.780;2023-07-20T10:53:52;100444.28;;;24.66;47.28
77321;BME280;66382;52.252;8.780;2023-07-20T10:56:20;100455.63;;;24.49;49.82
77321;BME280;66382;52.252;8.780;2023-07-20T10:58:45;100463.56;;;24.40;48.54
77321;BME280;66382;52.252;8.780;2023-07-20T11:01:14;100444.91;;;24.42;48.61
77321;BME280;66382;52.252;8.780;2023-07-20T11:03:41;100457.81;;;24.47;49.49
77321;BME280;66382;52.252;8.780;2023-07-20T11:06:33;100459.75;;;24.46;51.06
77321;BME280;66382;52.252;8.780;2023-07-20T11:09:07;100452.31;;;24.42;49.61
77321;BME280;66382;52.252;8.780;2023-07-20T11:11:34;100452.97;;;24.29;49.03
77321;BME280;66382;52.252;8.780;2023-07-20T11:14:02;100455.25;;;23.96;49.64
77321;BME280;66382;52.252;8.780;2023-07-20T11:16:35;100456.69;;;23.73;49.73
77321;BME280;66382;52.252;8.780;2023-07-20T11:19:02;100451.78;;;23.59;48.66
77321;BME280;66382;52.252;8.780;2023-07-20T11:21:28;100460.00;;;23.49;50.62
77321;BME280;66382;52.252;8.780;2023-07-20T11:23:56;100447.97;;;23.35;49.70
77321;BME280;66382;52.252;8.780;2023-07-20T11:26:21;100453.97;;;23.22;50.17
77321;BME280;66382;52.252;8.780;2023-07-20T11:28:48;100458.91;;;23.14;50.61
77321;BME280;66382;52.252;8.780;2023-07-20T11:31:14;100451.00;;;23.08;51.77
77321;BME280;66382;52.252;8.780;2023-07-20T11:33:40;100454.28;;;23.05;50.03
77321;BME280;66382;52.252;8.780;2023-07-20T11:36:06;100462.44;;;23.00;49.92
77321;BME280;66382;52.252;8.780;2023-07-20T11:38:33;100456.47;;;22.98;49.95
77321;BME280;66382;52.252;8.780;2023-07-20T11:41:02;100455.34;;;23.04;50.53
77321;BME280;66382;52.252;8.780;2023-07-20T11:43:28;100459.75;;;23.15;50.74
77321;BME280;66382;52.252;8.780;2023-07-20T11:45:53;100461.66;;;23.25;50.03
77321;BME280;66382;52.252;8.780;2023-07-20T11:48:19;100452.09;;;23.27;49.89
77321;BME280;66382;52.252;8.780;2023-07-20T11:50:45;100448.25;;;23.28;47.29
77321;BME280;66382;52.252;8.780;2023-07-20T11:53:11;100450.97;;;23.28;49.33
77321;BME280;66382;52.252;8.780;2023-07-20T11:55:38;100450.44;;;23.31;50.03
77321;BME280;66382;52.252;8.780;2023-07-20T11:58:06;100449.63;;;23.31;49.53
77321;BME280;66382;52.252;8.780;2023-07-20T12:00:33;100443.88;;;23.32;50.64
77321;BME280;66382;52.252;8.780;2023-07-20T12:02:59;100453.72;;;23.38;49.76
77321;BME280;66382;52.252;8.780;2023-07-20T12:05:25;100439.47;;;23.42;49.44
77321;BME280;66382;52.252;8.780;2023-07-20T12:07:51;100436.19;;;23.45;48.63
77321;BME280;66382;52.252;8.780;2023-07-20T12:10:23;100430.19;;;23.43;49.86
77321;BME280;66382;52.252;8.780;2023-07-20T12:12:49;100443.59;;;23.34;49.87
77321;BME280;66382;52.252;8.780;2023-07-20T12:15:20;100432.66;;;23.18;50.06
77321;BME280;66382;52.252;8.780;2023-07-20T12:17:49;100436.78;;;23.11;49.02
77321;BME280;66382;52.252;8.780;2023-07-20T12:20:24;100435.13;;;23.10;50.17
77321;BME280;66382;52.252;8.780;2023-07-20T12:22:50;100433.22;;;23.10;49.51
77321;BME280;66382;52.252;8.780;2023-07-20T12:25:16;100441.41;;;23.15;49.63
77321;BME280;66382;52.252;8.780;2023-07-20T12:27:44;100434.84;;;23.16;50.06
77321;BME280;66382;52.252;8.780;2023-07-20T12:30:10;100437.88;;;23.15;50.17
77321;BME280;66382;52.252;8.780;2023-07-20T12:32:37;100426.38;;;23.13;48.96
77321;BME280;66382;52.252;8.780;2023-07-20T12:35:03;100434.03;;;23.16;48.94
77321;BME280;66382;52.252;8.780;2023-07-20T12:37:28;100425.56;;;23.23;48.93
77321;BME280;66382;52.252;8.780;2023-07-20T12:39:54;100422.00;;;23.27;49.28
77321;BME280;66382;52.252;8.780;2023-07-20T12:42:20;100432.38;;;23.25;48.47
77321;BME280;66382;52.252;8.780;2023-07-20T12:44:46;100429.09;;;23.23;48.09
77321;BME280;66382;52.252;8.780;2023-07-20T12:47:12;100423.09;;;23.21;47.28
77321;BME280;66382;52.252;8.780;2023-07-20T12:49:39;100429.91;;;23.24;49.44